sensor_id;sensor_type;location;lat;lon;timestamp;P1;durP1;ratioP1;P2;durP2;ratioP2
70169;SDS011;57543;45.442;9.212;2023-05-10T00:02:01;17.25;;;11.90;;
70169;SDS011;57543;45.442;9.212;2023-05-10T00:05:05;18.98;;;12.02;;
70169;SDS011;57543;45.442;9.212;2023-05-10T00:08:10;17.53;;;12.10;;
70169;SDS011;57543;45.442;9.212;2023-05-10T00:11:13;20.80;;;12.50;;
70169;SDS011;57543;45.442;9.212;2023-05-10T00:14:16;19.48;;;12.50;;
70169;SDS011;57543;45.442;9.212;2023-05-10T00:17:20;20.33;;;13.23;;
70169;SDS011;57543;45.442;9.212;2023-05-10T00:20:24;19.08;;;11.63;;
70169;SDS011;57543;45.442;9.212;2023-05-10T00:23:27;18.30;;;11.77;;
70169;SDS011;57543;45.442;9.212;2023-05-10T00:26:31;16.05;;;10.23;;
70169;SDS011;57543;45.442;9.212;2023-05-10T00:29:35;19.58;;;12.40;;
70169;SDS011;57543;45.442;9.212;2023-05-10T00:32:39;18.60;;;11.45;;
70169;SDS011;57543;45.442;9.212;2023-05-10T00:35:42;20.88;;;12.30;;
70169;SDS011;57543;45.442;9.212;2023-05-10T00:38:46;17.57;;;11.23;;
70169;SDS011;57543;45.442;9.212;2023-05-10T00:41:50;16.98;;;11.15;;
70169;SDS011;57543;45.442;9.212;2023-05-10T00:44:54;19.52;;;11.73;;
70169;SDS011;57543;45.442;9.212;2023-05-10T00:48:02;17.75;;;11.52;;
70169;SDS011;57543;45.442;9.212;2023-05-10T00:51:07;18.88;;;11.77;;
70169;SDS011;57543;45.442;9.212;2023-05-10T00:54:11;17.30;;;10.60;;
70169;SDS011;57543;45.442;9.212;2023-05-10T00:57:17;18.70;;;11.18;;
70169;SDS011;57543;45.442;9.212;2023-05-10T01:00:20;15.68;;;10.05;;
70169;SDS011;57543;45.442;9.212;2023-05-10T01:03:25;15.38;;;10.15;;
70169;SDS011;57543;45.442;9.212;2023-05-10T01:06:29;14.05;;;9.40;;
70169;SDS011;57543;45.442;9.212;2023-05-10T01:09:32;16.93;;;10.23;;
70169;SDS011;57543;45.442;9.212;2023-05-10T01:12:37;15.02;;;9.77;;
70169;SDS011;57543;45.442;9.212;2023-05-10T01:15:43;15.23;;;10.23;;
70169;SDS011;57543;45.442;9.212;2023-05-10T01:18:47;15.57;;;10.48;;
70169;SDS011;57543;45.442;9.212;2023-05-10T01:29:18;16.20;;;10.10;;
70169;SDS011;57543;45.442;9.212;2023-05-10T01:42:48;15.40;;;10.33;;
70169;SDS011;57543;45.442;9.212;2023-05-10T01:46:00;16.88;;;10.50;;
70169;SDS011;57543;45.442;9.212;2023-05-10T01:49:21;16.50;;;10.77;;
70169;SDS011;57543;45.442;9.212;2023-05-10T01:52:33;14.75;;;9.63;;
70169;SDS011;57543;45.442;9.212;2023-05-10T01:55:43;16.35;;;10.55;;
70169;SDS011;57543;45.442;9.212;2023-05-10T01:58:50;15.30;;;9.90;;
70169;SDS011;57543;45.442;9.212;2023-05-10T02:01:57;15.35;;;9.68;;
70169;SDS011;57543;45.442;9.212;2023-05-10T02:05:06;16.42;;;10.48;;
70169;SDS011;57543;45.442;9.212;2023-05-10T02:08:10;17.75;;;10.00;;
70169;SDS011;57543;45.442;9.212;2023-05-10T02:11:15;16.42;;;10.38;;
70169;SDS011;57543;45.442;9.212;2023-05-10T02:14:21;17.10;;;9.87;;
70169;SDS011;57543;45.442;9.212;2023-05-10T02:17:27;14.25;;;9.07;;
70169;SDS011;57543;45.442;9.212;2023-05-10T02:20:32;13.35;;;8.55;;
70169;SDS011;57543;45.442;9.212;2023-05-10T02:23:38;13.95;;;7.97;;
70169;SDS011;57543;45.442;9.212;2023-05-10T02:26:42;12.70;;;8.13;;
70169;SDS011;57543;45.442;9.212;2023-05-10T02:29:48;14.07;;;7.97;;
70169;SDS011;57543;45.442;9.212;2023-05-10T02:32:53;10.98;;;7.10;;
70169;SDS011;57543;45.442;9.212;2023-05-10T02:36:00;12.60;;;8.27;;
70169;SDS011;57543;45.442;9.212;2023-05-10T02:39:04;13.48;;;8.48;;
70169;SDS011;57543;45.442;9.212;2023-05-10T02:42:15;13.32;;;8.35;;
70169;SDS011;57543;45.442;9.212;2023-05-10T02:45:23;12.10;;;8.17;;
70169;SDS011;57543;45.442;9.212;2023-05-10T02:48:31;11.23;;;7.32;;
70169;SDS011;57543;45.442;9.212;2023-05-10T02:51:35;11.75;;;7.10;;
70169;SDS011;57543;45.442;9.212;2023-05-10T02:54:44;10.45;;;6.68;;
70169;SDS011;57543;45.442;9.212;2023-05-10T02:57:51;11.18;;;6.55;;
70169;SDS011;57543;45.442;9.212;2023-05-10T03:00:58;10.67;;;6.70;;
70169;SDS011;57543;45.442;9.212;2023-05-10T03:04:03;10.60;;;6.95;;
70169;SDS011;57543;45.442;9.212;2023-05-10T03:07:07;10.73;;;6.35;;
70169;SDS011;57543;45.442;9.212;2023-05-10T03:10:12;10.30;;;6.07;;
70169;SDS011;57543;45.442;9.212;2023-05-10T03:13:36;8.98;;;6.00;;
70169;SDS011;57543;45.442;9.212;2023-05-10T03:17:06;9.27;;;5.90;;
70169;SDS011;57543;45.442;9.212;2023-05-10T03:20:47;10.05;;;5.85;;
70169;SDS011;57543;45.442;9.212;2023-05-10T03:24:04;8.20;;;5.82;;
70169;SDS011;57543;45.442;9.212;2023-05-10T03:27:11;11.50;;;5.90;;
70169;SDS011;57543;45.442;9.212;2023-05-10T03:30:19;9.63;;;6.03;;
70169;SDS011;57543;45.442;9.212;2023-05-10T03:33:23;9.07;;;5.77;;
70169;SDS011;57543;45.442;9.212;2023-05-10T03:36:27;8.95;;;6.00;;
70169;SDS011;57543;45.442;9.212;2023-05-10T03:39:32;10.02;;;6.22;;
70169;SDS011;57543;45.442;9.212;2023-05-10T03:42:36;11.23;;;6.30;;
70169;SDS011;57543;45.442;9.212;2023-05-10T03:45:40;9.18;;;5.78;;
70169;SDS011;57543;45.442;9.212;2023-05-10T03:48:44;10.77;;;5.87;;
70169;SDS011;57543;45.442;9.212;2023-05-10T03:51:47;10.75;;;7.00;;
70169;SDS011;57543;45.442;9.212;2023-05-10T03:54:51;10.23;;;6.10;;
70169;SDS011;57543;45.442;9.212;2023-05-10T03:57:55;8.93;;;6.05;;
70169;SDS011;57543;45.442;9.212;2023-05-10T04:01:00;8.43;;;5.57;;
70169;SDS011;57543;45.442;9.212;2023-05-10T04:04:03;9.00;;;5.60;;
70169;SDS011;57543;45.442;9.212;2023-05-10T04:07:08;9.27;;;5.38;;
70169;SDS011;57543;45.442;9.212;2023-05-10T04:10:13;9.27;;;5.50;;
70169;SDS011;57543;45.442;9.212;2023-05-10T04:13:17;7.60;;;4.85;;
70169;SDS011;57543;45.442;9.212;2023-05-10T04:16:20;7.85;;;5.38;;
70169;SDS011;57543;45.442;9.212;2023-05-10T04:19:23;8.47;;;5.23;;
70169;SDS011;57543;45.442;9.212;2023-05-10T04:22:27;8.30;;;6.00;;
70169;SDS011;57543;45.442;9.212;2023-05-10T04:25:33;8.65;;;5.32;;
70169;SDS011;57543;45.442;9.212;2023-05-10T04:28:38;8.50;;;4.75;;
70169;SDS011;57543;45.442;9.212;2023-05-10T04:31:42;9.10;;;5.75;;
70169;SDS011;57543;45.442;9.212;2023-05-10T04:34:45;9.33;;;5.70;;
70169;SDS011;57543;45.442;9.212;2023-05-10T04:37:49;7.80;;;5.18;;
70169;SDS011;57543;45.442;9.212;2023-05-10T04:40:53;7.65;;;5.25;;
70169;SDS011;57543;45.442;9.212;2023-05-10T04:43:56;7.10;;;4.75;;
70169;SDS011;57543;45.442;9.212;2023-05-10T04:47:00;8.65;;;4.82;;
70169;SDS011;57543;45.442;9.212;2023-05-10T04:50:05;7.37;;;4.63;;
70169;SDS011;57543;45.442;9.212;2023-05-10T04:53:09;8.82;;;5.63;;
70169;SDS011;57543;45.442;9.212;2023-05-10T04:56:13;9.10;;;5.38;;
70169;SDS011;57543;45.442;9.212;2023-05-10T04:59:17;8.13;;;4.78;;
70169;SDS011;57543;45.442;9.212;2023-05-10T05:02:20;8.55;;;5.00;;
70169;SDS011;57543;45.442;9.212;2023-05-10T05:05:23;9.43;;;5.80;;
70169;SDS011;57543;45.442;9.212;2023-05-10T05:08:27;9.10;;;5.88;;
70169;SDS011;57543;45.442;9.212;2023-05-10T05:11:30;9.45;;;6.10;;
70169;SDS011;57543;45.442;9.212;2023-05-10T05:14:34;9.93;;;6.50;;
70169;SDS011;57543;45.442;9.212;2023-05-10T05:17:37;9.48;;;5.72;;
70169;SDS011;57543;45.442;9.212;2023-05-10T05:20:41;8.60;;;6.03;;
70169;SDS011;57543;45.442;9.212;2023-05-10T05:23:45;12.05;;;6.47;;
70169;SDS011;57543;45.442;9.212;2023-05-10T05:26:49;9.80;;;5.80;;
70169;SDS011;57543;45.442;9.212;2023-05-10T05:29:53;10.90;;;6.13;;
70169;SDS011;57543;45.442;9.212;2023-05-10T05:32:57;10.27;;;6.18;;
70169;SDS011;57543;45.442;9.212;2023-05-10T05:36:01;8.97;;;6.03;;
70169;SDS011;57543;45.442;9.212;2023-05-10T05:39:08;9.88;;;6.07;;
70169;SDS011;57543;45.442;9.212;2023-05-10T05:42:12;9.68;;;5.97;;
70169;SDS011;57543;45.442;9.212;2023-05-10T05:45:16;10.93;;;5.93;;
70169;SDS011;57543;45.442;9.212;2023-05-10T05:48:20;10.05;;;5.38;;
70169;SDS011;57543;45.442;9.212;2023-05-10T05:51:24;9.70;;;6.00;;
70169;SDS011;57543;45.442;9.212;2023-05-10T05:54:27;9.30;;;6.20;;
70169;SDS011;57543;45.442;9.212;2023-05-10T05:57:31;9.25;;;6.10;;
70169;SDS011;57543;45.442;9.212;2023-05-10T06:00:35;9.48;;;6.07;;
70169;SDS011;57543;45.442;9.212;2023-05-10T06:03:39;9.00;;;5.85;;
70169;SDS011;57543;45.442;9.212;2023-05-10T06:06:42;9.23;;;5.90;;
70169;SDS011;57543;45.442;9.212;2023-05-10T06:09:45;10.05;;;5.93;;
70169;SDS011;57543;45.442;9.212;2023-05-10T06:12:49;18.90;;;8.48;;
70169;SDS011;57543;45.442;9.212;2023-05-10T06:15:52;23.30;;;9.57;;
70169;SDS011;57543;45.442;9.212;2023-05-10T06:18:56;21.95;;;9.07;;
70169;SDS011;57543;45.442;9.212;2023-05-10T06:21:59;10.07;;;5.60;;
70169;SDS011;57543;45.442;9.212;2023-05-10T06:25:03;9.50;;;6.18;;
70169;SDS011;57543;45.442;9.212;2023-05-10T06:28:07;12.40;;;6.10;;
70169;SDS011;57543;45.442;9.212;2023-05-10T06:31:10;9.43;;;5.72;;
70169;SDS011;57543;45.442;9.212;2023-05-10T06:34:15;9.63;;;5.82;;
70169;SDS011;57543;45.442;9.212;2023-05-10T06:37:19;10.07;;;5.87;;
70169;SDS011;57543;45.442;9.212;2023-05-10T06:40:23;9.48;;;6.00;;
70169;SDS011;57543;45.442;9.212;2023-05-10T06:43:27;9.40;;;6.07;;
70169;SDS011;57543;45.442;9.212;2023-05-10T06:46:31;9.40;;;5.78;;
70169;SDS011;57543;45.442;9.212;2023-05-10T06:49:35;9.63;;;6.10;;
70169;SDS011;57543;45.442;9.212;2023-05-10T06:52:40;9.53;;;5.57;;
70169;SDS011;57543;45.442;9.212;2023-05-10T06:55:44;11.43;;;6.00;;
70169;SDS011;57543;45.442;9.212;2023-05-10T06:58:48;10.25;;;5.95;;
70169;SDS011;57543;45.442;9.212;2023-05-10T07:01:51;8.98;;;5.22;;
70169;SDS011;57543;45.442;9.212;2023-05-10T07:04:54;9.13;;;5.75;;
70169;SDS011;57543;45.442;9.212;2023-05-10T07:07:58;8.33;;;5.20;;
70169;SDS011;57543;45.442;9.212;2023-05-10T07:11:03;7.97;;;5.10;;
70169;SDS011;57543;45.442;9.212;2023-05-10T07:14:08;7.07;;;4.60;;
70169;SDS011;57543;45.442;9.212;2023-05-10T07:17:11;8.23;;;4.35;;
70169;SDS011;57543;45.442;9.212;2023-05-10T07:20:16;7.47;;;4.40;;
70169;SDS011;57543;45.442;9.212;2023-05-10T07:23:20;6.27;;;4.03;;
70169;SDS011;57543;45.442;9.212;2023-05-10T07:26:29;7.55;;;4.60;;
70169;SDS011;57543;45.442;9.212;2023-05-10T07:29:36;5.90;;;3.72;;
70169;SDS011;57543;45.442;9.212;2023-05-10T07:32:40;6.32;;;3.88;;
70169;SDS011;57543;45.442;9.212;2023-05-10T07:35:44;6.22;;;3.60;;
70169;SDS011;57543;45.442;9.212;2023-05-10T07:38:48;6.10;;;3.60;;
70169;SDS011;57543;45.442;9.212;2023-05-10T07:41:52;5.65;;;3.63;;
70169;SDS011;57543;45.442;9.212;2023-05-10T07:44:57;5.50;;;3.78;;
70169;SDS011;57543;45.442;9.212;2023-05-10T07:48:00;5.63;;;3.50;;
70169;SDS011;57543;45.442;9.212;2023-05-10T07:51:04;6.50;;;4.00;;
70169;SDS011;57543;45.442;9.212;2023-05-10T07:54:07;6.63;;;3.90;;
70169;SDS011;57543;45.442;9.212;2023-05-10T07:57:11;7.03;;;4.45;;
70169;SDS011;57543;45.442;9.212;2023-05-10T08:00:17;7.22;;;3.97;;
70169;SDS011;57543;45.442;9.212;2023-05-10T08:03:22;6.53;;;4.05;;
70169;SDS011;57543;45.442;9.212;2023-05-10T08:06:25;6.07;;;3.53;;
70169;SDS011;57543;45.442;9.212;2023-05-10T08:09:33;5.93;;;3.57;;
70169;SDS011;57543;45.442;9.212;2023-05-10T08:12:36;6.18;;;4.30;;
70169;SDS011;57543;45.442;9.212;2023-05-10T08:15:41;5.43;;;3.50;;
70169;SDS011;57543;45.442;9.212;2023-05-10T08:18:44;5.97;;;3.63;;
70169;SDS011;57543;45.442;9.212;2023-05-10T08:21:49;5.45;;;3.53;;
70169;SDS011;57543;45.442;9.212;2023-05-10T08:24:53;6.83;;;4.17;;
70169;SDS011;57543;45.442;9.212;2023-05-10T08:27:57;7.85;;;4.38;;
70169;SDS011;57543;45.442;9.212;2023-05-10T08:31:00;6.13;;;4.07;;
70169;SDS011;57543;45.442;9.212;2023-05-10T08:34:04;5.95;;;3.83;;
70169;SDS011;57543;45.442;9.212;2023-05-10T08:37:08;6.18;;;4.13;;
70169;SDS011;57543;45.442;9.212;2023-05-10T08:40:12;5.40;;;3.53;;
70169;SDS011;57543;45.442;9.212;2023-05-10T08:43:18;6.38;;;4.13;;
70169;SDS011;57543;45.442;9.212;2023-05-10T08:46:22;6.78;;;3.80;;
70169;SDS011;57543;45.442;9.212;2023-05-10T08:49:26;6.30;;;3.80;;
70169;SDS011;57543;45.442;9.212;2023-05-10T08:52:30;5.68;;;3.70;;
70169;SDS011;57543;45.442;9.212;2023-05-10T08:55:37;5.47;;;4.00;;
70169;SDS011;57543;45.442;9.212;2023-05-10T08:58:42;7.03;;;4.78;;
70169;SDS011;57543;45.442;9.212;2023-05-10T09:01:46;7.00;;;5.35;;
70169;SDS011;57543;45.442;9.212;2023-05-10T09:04:52;6.35;;;4.45;;
70169;SDS011;57543;45.442;9.212;2023-05-10T09:07:56;6.95;;;4.25;;
70169;SDS011;57543;45.442;9.212;2023-05-10T09:11:00;7.90;;;5.13;;
70169;SDS011;57543;45.442;9.212;2023-05-10T09:14:04;7.53;;;4.85;;
70169;SDS011;57543;45.442;9.212;2023-05-10T09:17:09;6.28;;;4.35;;
70169;SDS011;57543;45.442;9.212;2023-05-10T09:20:13;6.90;;;4.00;;
70169;SDS011;57543;45.442;9.212;2023-05-10T09:23:16;7.38;;;4.47;;
70169;SDS011;57543;45.442;9.212;2023-05-10T09:26:23;6.57;;;3.90;;
70169;SDS011;57543;45.442;9.212;2023-05-10T09:29:28;5.65;;;3.75;;
70169;SDS011;57543;45.442;9.212;2023-05-10T09:32:46;7.35;;;4.60;;
70169;SDS011;57543;45.442;9.212;2023-05-10T09:35:51;8.55;;;4.00;;
70169;SDS011;57543;45.442;9.212;2023-05-10T09:38:55;5.63;;;3.78;;
70169;SDS011;57543;45.442;9.212;2023-05-10T09:42:03;7.07;;;4.33;;
70169;SDS011;57543;45.442;9.212;2023-05-10T09:45:08;5.80;;;4.18;;
70169;SDS011;57543;45.442;9.212;2023-05-10T09:48:12;7.38;;;4.10;;
70169;SDS011;57543;45.442;9.212;2023-05-10T09:51:19;6.10;;;4.05;;
70169;SDS011;57543;45.442;9.212;2023-05-10T09:54:27;5.60;;;4.10;;
70169;SDS011;57543;45.442;9.212;2023-05-10T09:57:30;6.37;;;4.30;;
70169;SDS011;57543;45.442;9.212;2023-05-10T10:00:38;5.32;;;3.42;;
70169;SDS011;57543;45.442;9.212;2023-05-10T10:03:43;5.65;;;3.60;;
70169;SDS011;57543;45.442;9.212;2023-05-10T10:06:58;8.52;;;4.10;;
70169;SDS011;57543;45.442;9.212;2023-05-10T10:10:03;7.03;;;4.10;;
70169;SDS011;57543;45.442;9.212;2023-05-10T10:13:08;6.20;;;4.07;;
70169;SDS011;57543;45.442;9.212;2023-05-10T10:16:11;5.57;;;3.83;;
70169;SDS011;57543;45.442;9.212;2023-05-10T10:19:15;7.45;;;3.70;;
70169;SDS011;57543;45.442;9.212;2023-05-10T10:22:20;6.82;;;3.80;;
70169;SDS011;57543;45.442;9.212;2023-05-10T10:25:23;5.85;;;3.70;;
70169;SDS011;57543;45.442;9.212;2023-05-10T10:29:04;7.03;;;3.30;;
70169;SDS011;57543;45.442;9.212;2023-05-10T10:35:20;5.45;;;3.60;;
70169;SDS011;57543;45.442;9.212;2023-05-10T10:38:24;5.53;;;3.72;;
70169;SDS011;57543;45.442;9.212;2023-05-10T10:41:32;5.68;;;3.75;;
70169;SDS011;57543;45.442;9.212;2023-05-10T10:44:39;6.07;;;3.77;;
70169;SDS011;57543;45.442;9.212;2023-05-10T10:47:43;7.22;;;3.88;;
70169;SDS011;57543;45.442;9.212;2023-05-10T10:50:51;7.10;;;3.67;;
70169;SDS011;57543;45.442;9.212;2023-05-10T10:54:08;6.45;;;4.00;;
70169;SDS011;57543;45.442;9.212;2023-05-10T10:57:14;7.15;;;4.18;;
70169;SDS011;57543;45.442;9.212;2023-05-10T11:03:21;5.93;;;4.00;;
70169;SDS011;57543;45.442;9.212;2023-05-10T11:06:30;7.22;;;3.63;;
70169;SDS011;57543;45.442;9.212;2023-05-10T11:09:39;6.13;;;3.72;;
70169;SDS011;57543;45.442;9.212;2023-05-10T11:12:59;6.03;;;3.78;;
70169;SDS011;57543;45.442;9.212;2023-05-10T11:19:27;5.97;;;3.72;;
70169;SDS011;57543;45.442;9.212;2023-05-10T11:22:31;6.85;;;3.80;;
70169;SDS011;57543;45.442;9.212;2023-05-10T11:25:52;6.57;;;4.15;;
70169;SDS011;57543;45.442;9.212;2023-05-10T11:28:57;6.78;;;4.47;;
70169;SDS011;57543;45.442;9.212;2023-05-10T11:32:04;8.30;;;4.77;;
70169;SDS011;57543;45.442;9.212;2023-05-10T11:35:11;8.35;;;5.50;;
70169;SDS011;57543;45.442;9.212;2023-05-10T11:38:15;7.35;;;6.00;;
70169;SDS011;57543;45.442;9.212;2023-05-10T11:41:19;8.88;;;5.78;;
70169;SDS011;57543;45.442;9.212;2023-05-10T11:44:29;9.02;;;5.80;;
70169;SDS011;57543;45.442;9.212;2023-05-10T11:47:34;7.70;;;5.80;;
70169;SDS011;57543;45.442;9.212;2023-05-10T11:50:40;6.88;;;5.60;;
70169;SDS011;57543;45.442;9.212;2023-05-10T11:53:44;7.28;;;5.45;;
70169;SDS011;57543;45.442;9.212;2023-05-10T11:56:48;7.38;;;4.80;;
70169;SDS011;57543;45.442;9.212;2023-05-10T11:59:53;7.75;;;5.15;;
70169;SDS011;57543;45.442;9.212;2023-05-10T12:02:57;6.50;;;4.53;;
70169;SDS011;57543;45.442;9.212;2023-05-10T12:06:01;7.18;;;4.97;;
70169;SDS011;57543;45.442;9.212;2023-05-10T12:09:06;6.63;;;4.57;;
70169;SDS011;57543;45.442;9.212;2023-05-10T12:12:17;6.30;;;4.35;;
70169;SDS011;57543;45.442;9.212;2023-05-10T12:15:22;6.18;;;4.68;;
70169;SDS011;57543;45.442;9.212;2023-05-10T12:18:26;8.97;;;4.60;;
70169;SDS011;57543;45.442;9.212;2023-05-10T12:21:30;7.03;;;4.75;;
70169;SDS011;57543;45.442;9.212;2023-05-10T12:24:35;7.28;;;4.20;;
70169;SDS011;57543;45.442;9.212;2023-05-10T12:27:39;6.13;;;4.45;;
70169;SDS011;57543;45.442;9.212;2023-05-10T12:30:43;7.30;;;4.38;;
70169;SDS011;57543;45.442;9.212;2023-05-10T12:33:47;7.87;;;3.90;;
70169;SDS011;57543;45.442;9.212;2023-05-10T12:36:53;6.85;;;4.63;;
70169;SDS011;57543;45.442;9.212;2023-05-10T12:39:56;5.45;;;3.55;;
70169;SDS011;57543;45.442;9.212;2023-05-10T12:43:00;5.90;;;4.15;;
70169;SDS011;57543;45.442;9.212;2023-05-10T12:46:04;5.95;;;3.60;;
70169;SDS011;57543;45.442;9.212;2023-05-10T12:49:30;6.50;;;3.60;;
70169;SDS011;57543;45.442;9.212;2023-05-10T12:52:34;5.93;;;3.40;;
70169;SDS011;57543;45.442;9.212;2023-05-10T12:55:40;5.60;;;3.60;;
70169;SDS011;57543;45.442;9.212;2023-05-10T12:58:44;5.25;;;3.47;;
70169;SDS011;57543;45.442;9.212;2023-05-10T13:01:51;6.20;;;4.00;;
70169;SDS011;57543;45.442;9.212;2023-05-10T13:04:54;5.60;;;3.60;;
70169;SDS011;57543;45.442;9.212;2023-05-10T13:07:58;5.85;;;3.35;;
70169;SDS011;57543;45.442;9.212;2023-05-10T13:11:02;6.75;;;4.00;;
70169;SDS011;57543;45.442;9.212;2023-05-10T13:14:06;6.22;;;4.15;;
70169;SDS011;57543;45.442;9.212;2023-05-10T13:17:09;6.05;;;3.90;;
70169;SDS011;57543;45.442;9.212;2023-05-10T13:20:13;6.57;;;3.80;;
70169;SDS011;57543;45.442;9.212;2023-05-10T13:23:17;7.65;;;4.90;;
70169;SDS011;57543;45.442;9.212;2023-05-10T13:26:21;7.38;;;5.03;;
70169;SDS011;57543;45.442;9.212;2023-05-10T13:29:24;7.60;;;4.43;;
70169;SDS011;57543;45.442;9.212;2023-05-10T13:32:28;8.50;;;5.30;;
70169;SDS011;57543;45.442;9.212;2023-05-10T13:35:32;6.00;;;3.90;;
70169;SDS011;57543;45.442;9.212;2023-05-10T13:38:36;7.22;;;4.80;;
70169;SDS011;57543;45.442;9.212;2023-05-10T13:41:40;8.32;;;4.97;;
70169;SDS011;57543;45.442;9.212;2023-05-10T13:44:45;7.00;;;4.03;;
70169;SDS011;57543;45.442;9.212;2023-05-10T13:47:49;10.50;;;5.68;;
70169;SDS011;57543;45.442;9.212;2023-05-10T13:50:53;7.33;;;5.23;;
70169;SDS011;57543;45.442;9.212;2023-05-10T13:53:57;6.85;;;5.00;;
70169;SDS011;57543;45.442;9.212;2023-05-10T13:57:01;8.20;;;5.50;;
70169;SDS011;57543;45.442;9.212;2023-05-10T14:00:05;8.63;;;4.97;;
70169;SDS011;57543;45.442;9.212;2023-05-10T14:03:11;5.80;;;4.15;;
70169;SDS011;57543;45.442;9.212;2023-05-10T14:06:15;6.00;;;3.97;;
70169;SDS011;57543;45.442;9.212;2023-05-10T14:09:19;7.47;;;4.55;;
70169;SDS011;57543;45.442;9.212;2023-05-10T14:12:23;8.57;;;4.80;;
70169;SDS011;57543;45.442;9.212;2023-05-10T14:15:27;6.70;;;4.75;;
70169;SDS011;57543;45.442;9.212;2023-05-10T14:18:30;7.63;;;4.95;;
70169;SDS011;57543;45.442;9.212;2023-05-10T14:21:34;7.07;;;5.33;;
70169;SDS011;57543;45.442;9.212;2023-05-10T14:24:38;6.85;;;4.57;;
70169;SDS011;57543;45.442;9.212;2023-05-10T14:27:41;7.13;;;4.88;;
70169;SDS011;57543;45.442;9.212;2023-05-10T14:30:45;7.07;;;4.38;;
70169;SDS011;57543;45.442;9.212;2023-05-10T14:33:49;8.93;;;4.70;;
70169;SDS011;57543;45.442;9.212;2023-05-10T14:36:53;8.57;;;4.63;;
70169;SDS011;57543;45.442;9.212;2023-05-10T14:39:56;7.57;;;4.88;;
70169;SDS011;57543;45.442;9.212;2023-05-10T14:43:01;7.18;;;4.93;;
70169;SDS011;57543;45.442;9.212;2023-05-10T14:46:04;6.78;;;4.75;;
70169;SDS011;57543;45.442;9.212;2023-05-10T14:49:08;7.95;;;6.15;;
70169;SDS011;57543;45.442;9.212;2023-05-10T14:52:11;7.97;;;6.03;;
70169;SDS011;57543;45.442;9.212;2023-05-10T14:55:15;9.55;;;6.07;;
70169;SDS011;57543;45.442;9.212;2023-05-10T14:58:19;7.50;;;5.38;;
70169;SDS011;57543;45.442;9.212;2023-05-10T15:01:23;10.18;;;5.53;;
70169;SDS011;57543;45.442;9.212;2023-05-10T15:04:27;6.45;;;5.25;;
70169;SDS011;57543;45.442;9.212;2023-05-10T15:07:31;8.40;;;5.60;;
70169;SDS011;57543;45.442;9.212;2023-05-10T15:10:35;7.63;;;5.15;;
70169;SDS011;57543;45.442;9.212;2023-05-10T15:13:39;7.75;;;5.10;;
70169;SDS011;57543;45.442;9.212;2023-05-10T15:16:43;8.65;;;4.68;;
70169;SDS011;57543;45.442;9.212;2023-05-10T15:19:47;6.68;;;4.82;;
70169;SDS011;57543;45.442;9.212;2023-05-10T15:22:52;6.60;;;4.20;;
70169;SDS011;57543;45.442;9.212;2023-05-10T15:25:56;6.78;;;4.50;;
70169;SDS011;57543;45.442;9.212;2023-05-10T15:29:00;7.20;;;4.10;;
70169;SDS011;57543;45.442;9.212;2023-05-10T15:32:04;6.20;;;4.47;;
70169;SDS011;57543;45.442;9.212;2023-05-10T15:35:08;6.05;;;3.95;;
70169;SDS011;57543;45.442;9.212;2023-05-10T15:38:13;6.67;;;3.90;;
70169;SDS011;57543;45.442;9.212;2023-05-10T15:41:17;5.88;;;4.40;;
70169;SDS011;57543;45.442;9.212;2023-05-10T15:44:21;6.38;;;4.35;;
70169;SDS011;57543;45.442;9.212;2023-05-10T15:47:25;7.20;;;4.00;;
70169;SDS011;57543;45.442;9.212;2023-05-10T15:50:30;8.48;;;4.70;;
70169;SDS011;57543;45.442;9.212;2023-05-10T15:53:34;6.50;;;4.30;;
70169;SDS011;57543;45.442;9.212;2023-05-10T15:56:38;5.93;;;3.67;;
70169;SDS011;57543;45.442;9.212;2023-05-10T15:59:42;4.55;;;3.17;;
70169;SDS011;57543;45.442;9.212;2023-05-10T16:02:45;6.38;;;3.80;;
70169;SDS011;57543;45.442;9.212;2023-05-10T16:05:49;5.90;;;4.10;;
70169;SDS011;57543;45.442;9.212;2023-05-10T16:08:52;5.47;;;4.27;;
70169;SDS011;57543;45.442;9.212;2023-05-10T16:11:56;6.18;;;3.90;;
70169;SDS011;57543;45.442;9.212;2023-05-10T16:15:00;5.80;;;4.03;;
70169;SDS011;57543;45.442;9.212;2023-05-10T16:18:04;6.45;;;4.78;;
70169;SDS011;57543;45.442;9.212;2023-05-10T16:21:08;6.43;;;4.78;;
70169;SDS011;57543;45.442;9.212;2023-05-10T16:24:11;6.10;;;4.50;;
70169;SDS011;57543;45.442;9.212;2023-05-10T16:27:15;7.35;;;4.90;;
70169;SDS011;57543;45.442;9.212;2023-05-10T16:30:18;6.75;;;4.78;;
70169;SDS011;57543;45.442;9.212;2023-05-10T16:33:22;7.07;;;5.18;;
70169;SDS011;57543;45.442;9.212;2023-05-10T16:36:25;8.68;;;5.75;;
70169;SDS011;57543;45.442;9.212;2023-05-10T16:39:29;7.67;;;5.67;;
70169;SDS011;57543;45.442;9.212;2023-05-10T16:42:32;8.13;;;5.32;;
70169;SDS011;57543;45.442;9.212;2023-05-10T16:45:36;6.85;;;5.05;;
70169;SDS011;57543;45.442;9.212;2023-05-10T16:48:40;7.80;;;5.80;;
70169;SDS011;57543;45.442;9.212;2023-05-10T16:51:44;8.18;;;5.93;;
70169;SDS011;57543;45.442;9.212;2023-05-10T16:54:47;7.87;;;5.60;;
70169;SDS011;57543;45.442;9.212;2023-05-10T16:57:51;7.63;;;5.82;;
70169;SDS011;57543;45.442;9.212;2023-05-10T17:00:55;8.88;;;5.13;;
70169;SDS011;57543;45.442;9.212;2023-05-10T17:03:58;7.85;;;5.50;;
70169;SDS011;57543;45.442;9.212;2023-05-10T17:07:02;8.55;;;5.60;;
70169;SDS011;57543;45.442;9.212;2023-05-10T17:10:06;7.67;;;4.50;;
70169;SDS011;57543;45.442;9.212;2023-05-10T17:13:10;9.23;;;5.60;;
70169;SDS011;57543;45.442;9.212;2023-05-10T17:16:14;8.40;;;5.70;;
70169;SDS011;57543;45.442;9.212;2023-05-10T17:19:17;7.20;;;4.90;;
70169;SDS011;57543;45.442;9.212;2023-05-10T17:22:21;8.30;;;4.90;;
70169;SDS011;57543;45.442;9.212;2023-05-10T17:25:25;7.67;;;4.90;;
70169;SDS011;57543;45.442;9.212;2023-05-10T17:28:29;7.03;;;4.40;;
70169;SDS011;57543;45.442;9.212;2023-05-10T17:31:33;6.72;;;4.60;;
70169;SDS011;57543;45.442;9.212;2023-05-10T17:34:37;7.13;;;4.40;;
70169;SDS011;57543;45.442;9.212;2023-05-10T17:37:41;6.97;;;5.00;;
70169;SDS011;57543;45.442;9.212;2023-05-10T17:40:46;7.47;;;5.00;;
70169;SDS011;57543;45.442;9.212;2023-05-10T17:43:50;9.23;;;4.00;;
70169;SDS011;57543;45.442;9.212;2023-05-10T17:46:56;7.50;;;5.05;;
70169;SDS011;57543;45.442;9.212;2023-05-10T17:50:00;6.93;;;4.30;;
70169;SDS011;57543;45.442;9.212;2023-05-10T17:53:04;7.07;;;4.40;;
70169;SDS011;57543;45.442;9.212;2023-05-10T17:56:08;7.17;;;4.90;;
70169;SDS011;57543;45.442;9.212;2023-05-10T17:59:12;7.40;;;4.80;;
70169;SDS011;57543;45.442;9.212;2023-05-10T18:02:15;6.82;;;4.13;;
70169;SDS011;57543;45.442;9.212;2023-05-10T18:05:19;7.78;;;4.95;;
70169;SDS011;57543;45.442;9.212;2023-05-10T18:08:23;6.55;;;4.20;;
70169;SDS011;57543;45.442;9.212;2023-05-10T18:11:29;6.60;;;4.33;;
70169;SDS011;57543;45.442;9.212;2023-05-10T18:14:33;6.05;;;4.18;;
70169;SDS011;57543;45.442;9.212;2023-05-10T18:17:36;6.70;;;4.28;;
70169;SDS011;57543;45.442;9.212;2023-05-10T18:20:40;6.07;;;4.22;;
70169;SDS011;57543;45.442;9.212;2023-05-10T18:23:44;6.90;;;4.53;;
70169;SDS011;57543;45.442;9.212;2023-05-10T18:26:48;5.27;;;3.37;;
70169;SDS011;57543;45.442;9.212;2023-05-10T18:29:52;7.22;;;4.40;;
70169;SDS011;57543;45.442;9.212;2023-05-10T18:32:56;6.95;;;4.57;;
70169;SDS011;57543;45.442;9.212;2023-05-10T18:36:00;6.75;;;4.68;;
70169;SDS011;57543;45.442;9.212;2023-05-10T18:39:04;7.72;;;4.15;;
70169;SDS011;57543;45.442;9.212;2023-05-10T18:42:08;8.07;;;4.80;;
70169;SDS011;57543;45.442;9.212;2023-05-10T18:45:12;6.72;;;3.80;;
70169;SDS011;57543;45.442;9.212;2023-05-10T18:48:16;9.20;;;4.70;;
70169;SDS011;57543;45.442;9.212;2023-05-10T18:51:20;6.82;;;3.95;;
70169;SDS011;57543;45.442;9.212;2023-05-10T18:54:24;8.45;;;4.80;;
70169;SDS011;57543;45.442;9.212;2023-05-10T18:57:29;8.33;;;4.37;;